Lechlade, United Kingdom
Current Conditions -  °F | °C
As of 3:03 AM on Saturday 22 Nov 2014 (Local Time) from EGVA Reporting Station
Light Rain Light Rain  
Wind Chill: 52°   Ceiling: 700
Heat Index: 52°   Visibility: 4mi
Dew Point: 52°   Wind: 5mph
Humidity: 100%   Direction: 160°SSE
Pressure: 29.82"   Gusts: NA
Location:  51.69°N, 1.69°W
Report Text: EGVA 220303Z AUTO 16004KT 6000 R27/1300 -RA BR OVC007 11/11 A2982 RMK AO2 $
Loading
Personal Weather Stations






























Interactive Weather Map New forecast layout! Learn more

10-Day Weather Forecast

Advertisements
Track Severe Weather on mobile